sensor_id;sensor_type;location;lat;lon;timestamp;temperature;humidity
63260;DHT22;49390;51.380;0.098;2023-02-26T00:01:45;4.00;99.90
63260;DHT22;49390;51.380;0.098;2023-02-26T00:04:14;4.00;99.90
63260;DHT22;49390;51.380;0.098;2023-02-26T00:06:41;4.00;99.90
63260;DHT22;49390;51.380;0.098;2023-02-26T00:09:25;4.00;99.90
63260;DHT22;49390;51.380;0.098;2023-02-26T00:11:53;4.00;99.90
63260;DHT22;49390;51.380;0.098;2023-02-26T00:14:25;3.90;99.90
63260;DHT22;49390;51.380;0.098;2023-02-26T00:19:32;3.90;99.90
63260;DHT22;49390;51.380;0.098;2023-02-26T00:22:01;3.80;99.90
63260;DHT22;49390;51.380;0.098;2023-02-26T00:24:29;3.80;99.90
63260;DHT22;49390;51.380;0.098;2023-02-26T00:26:57;3.80;99.90
63260;DHT22;49390;51.380;0.098;2023-02-26T00:29:25;3.80;99.90
63260;DHT22;49390;51.380;0.098;2023-02-26T00:31:53;3.70;99.90
63260;DHT22;49390;51.380;0.098;2023-02-26T00:34:22;3.70;99.90
63260;DHT22;49390;51.380;0.098;2023-02-26T00:42:16;3.70;99.90
63260;DHT22;49390;51.380;0.098;2023-02-26T00:44:44;3.70;99.90
63260;DHT22;49390;51.380;0.098;2023-02-26T00:53:10;3.60;99.90
63260;DHT22;49390;51.380;0.098;2023-02-26T00:55:40;3.60;99.90
63260;DHT22;49390;51.380;0.098;2023-02-26T00:58:08;3.60;99.90
63260;DHT22;49390;51.380;0.098;2023-02-26T01:00:36;3.60;99.90
63260;DHT22;49390;51.380;0.098;2023-02-26T01:03:04;3.50;99.90
63260;DHT22;49390;51.380;0.098;2023-02-26T01:05:32;3.50;99.90
63260;DHT22;49390;51.380;0.098;2023-02-26T01:08:14;3.50;99.90
63260;DHT22;49390;51.380;0.098;2023-02-26T01:10:45;3.50;99.90
63260;DHT22;49390;51.380;0.098;2023-02-26T01:13:13;3.50;99.90
63260;DHT22;49390;51.380;0.098;2023-02-26T01:15:48;3.50;99.90
63260;DHT22;49390;51.380;0.098;2023-02-26T01:18:21;3.50;99.90
63260;DHT22;49390;51.380;0.098;2023-02-26T01:21:02;3.50;99.90
63260;DHT22;49390;51.380;0.098;2023-02-26T01:23:34;3.50;99.90
63260;DHT22;49390;51.380;0.098;2023-02-26T01:26:15;3.50;99.90
63260;DHT22;49390;51.380;0.098;2023-02-26T01:28:45;3.50;99.90
63260;DHT22;49390;51.380;0.098;2023-02-26T01:31:34;3.40;99.90
63260;DHT22;49390;51.380;0.098;2023-02-26T01:34:18;3.40;99.90
63260;DHT22;49390;51.380;0.098;2023-02-26T01:36:56;3.40;99.90
63260;DHT22;49390;51.380;0.098;2023-02-26T01:39:38;3.40;99.90
63260;DHT22;49390;51.380;0.098;2023-02-26T01:42:32;3.40;99.90
63260;DHT22;49390;51.380;0.098;2023-02-26T01:45:10;3.30;99.90
63260;DHT22;49390;51.380;0.098;2023-02-26T01:50:26;3.30;99.90
63260;DHT22;49390;51.380;0.098;2023-02-26T01:55:52;3.30;99.90
63260;DHT22;49390;51.380;0.098;2023-02-26T01:58:24;3.30;99.90
63260;DHT22;49390;51.380;0.098;2023-02-26T02:00:52;3.20;99.90
63260;DHT22;49390;51.380;0.098;2023-02-26T02:03:21;3.20;99.90
63260;DHT22;49390;51.380;0.098;2023-02-26T02:06:17;3.20;99.90
63260;DHT22;49390;51.380;0.098;2023-02-26T02:08:43;3.20;99.90
63260;DHT22;49390;51.380;0.098;2023-02-26T02:11:12;3.10;99.90
63260;DHT22;49390;51.380;0.098;2023-02-26T02:14:03;3.10;99.90
63260;DHT22;49390;51.380;0.098;2023-02-26T02:16:53;3.10;99.90
63260;DHT22;49390;51.380;0.098;2023-02-26T02:33:46;3.00;99.90
63260;DHT22;49390;51.380;0.098;2023-02-26T02:36:23;3.00;99.90
63260;DHT22;49390;51.380;0.098;2023-02-26T02:38:57;3.00;99.90
63260;DHT22;49390;51.380;0.098;2023-02-26T02:41:58;3.00;99.90
63260;DHT22;49390;51.380;0.098;2023-02-26T02:44:28;3.00;99.90
63260;DHT22;49390;51.380;0.098;2023-02-26T02:46:58;3.10;99.90
63260;DHT22;49390;51.380;0.098;2023-02-26T02:49:37;3.00;99.90
63260;DHT22;49390;51.380;0.098;2023-02-26T02:52:18;3.10;99.90
63260;DHT22;49390;51.380;0.098;2023-02-26T02:54:54;3.10;99.90
63260;DHT22;49390;51.380;0.098;2023-02-26T02:57:32;3.10;99.90
63260;DHT22;49390;51.380;0.098;2023-02-26T03:00:06;3.00;99.90
63260;DHT22;49390;51.380;0.098;2023-02-26T03:02:46;3.10;99.90
63260;DHT22;49390;51.380;0.098;2023-02-26T03:05:14;3.10;99.90
63260;DHT22;49390;51.380;0.098;2023-02-26T03:08:07;3.00;99.90
63260;DHT22;49390;51.380;0.098;2023-02-26T03:10:37;3.00;99.90
63260;DHT22;49390;51.380;0.098;2023-02-26T03:13:10;3.00;99.90
63260;DHT22;49390;51.380;0.098;2023-02-26T03:15:59;3.00;99.90
63260;DHT22;49390;51.380;0.098;2023-02-26T03:21:13;3.00;99.90
63260;DHT22;49390;51.380;0.098;2023-02-26T03:23:58;3.10;99.90
63260;DHT22;49390;51.380;0.098;2023-02-26T03:26:46;3.10;99.90
63260;DHT22;49390;51.380;0.098;2023-02-26T03:29:32;3.10;99.90
63260;DHT22;49390;51.380;0.098;2023-02-26T03:32:07;3.20;99.90
63260;DHT22;49390;51.380;0.098;2023-02-26T03:34:48;3.20;99.90
63260;DHT22;49390;51.380;0.098;2023-02-26T03:37:26;3.30;99.90
63260;DHT22;49390;51.380;0.098;2023-02-26T03:40:02;3.30;99.90
63260;DHT22;49390;51.380;0.098;2023-02-26T03:42:58;3.30;99.90
63260;DHT22;49390;51.380;0.098;2023-02-26T03:45:33;3.30;99.90
63260;DHT22;49390;51.380;0.098;2023-02-26T03:48:04;3.40;99.90
63260;DHT22;49390;51.380;0.098;2023-02-26T03:50:43;3.40;99.90
63260;DHT22;49390;51.380;0.098;2023-02-26T03:53:24;3.50;99.90
63260;DHT22;49390;51.380;0.098;2023-02-26T03:56:02;3.50;99.90
63260;DHT22;49390;51.380;0.098;2023-02-26T03:58:49;3.50;99.90
63260;DHT22;49390;51.380;0.098;2023-02-26T04:05:05;3.60;99.90
63260;DHT22;49390;51.380;0.098;2023-02-26T04:07:34;3.70;99.90
63260;DHT22;49390;51.380;0.098;2023-02-26T04:10:03;3.70;99.90
63260;DHT22;49390;51.380;0.098;2023-02-26T04:12:32;3.70;99.90
63260;DHT22;49390;51.380;0.098;2023-02-26T04:15:00;3.80;99.90
63260;DHT22;49390;51.380;0.098;2023-02-26T04:17:29;3.80;99.90
63260;DHT22;49390;51.380;0.098;2023-02-26T04:19:58;3.80;99.90
63260;DHT22;49390;51.380;0.098;2023-02-26T04:22:27;3.90;99.90
63260;DHT22;49390;51.380;0.098;2023-02-26T04:24:55;3.90;99.90
63260;DHT22;49390;51.380;0.098;2023-02-26T04:27:25;4.00;99.90
63260;DHT22;49390;51.380;0.098;2023-02-26T04:29:54;3.90;99.90
63260;DHT22;49390;51.380;0.098;2023-02-26T04:32:22;4.00;99.90
63260;DHT22;49390;51.380;0.098;2023-02-26T04:34:50;4.00;99.90
63260;DHT22;49390;51.380;0.098;2023-02-26T04:37:18;4.00;99.90
63260;DHT22;49390;51.380;0.098;2023-02-26T04:39:46;4.00;99.90
63260;DHT22;49390;51.380;0.098;2023-02-26T04:42:19;4.00;99.90
63260;DHT22;49390;51.380;0.098;2023-02-26T04:44:47;4.00;99.90
63260;DHT22;49390;51.380;0.098;2023-02-26T04:47:16;4.00;99.90
63260;DHT22;49390;51.380;0.098;2023-02-26T04:49:47;4.10;99.90
63260;DHT22;49390;51.380;0.098;2023-02-26T04:52:15;4.00;99.90
63260;DHT22;49390;51.380;0.098;2023-02-26T04:54:46;4.10;99.90
63260;DHT22;49390;51.380;0.098;2023-02-26T04:57:15;4.10;99.90
63260;DHT22;49390;51.380;0.098;2023-02-26T04:59:44;4.00;99.90
63260;DHT22;49390;51.380;0.098;2023-02-26T05:02:13;4.10;99.90
63260;DHT22;49390;51.380;0.098;2023-02-26T05:04:44;4.00;99.90
63260;DHT22;49390;51.380;0.098;2023-02-26T05:07:13;4.00;99.90
63260;DHT22;49390;51.380;0.098;2023-02-26T05:09:41;3.90;99.90
63260;DHT22;49390;51.380;0.098;2023-02-26T05:12:09;3.90;99.90
63260;DHT22;49390;51.380;0.098;2023-02-26T05:14:38;3.90;99.90
63260;DHT22;49390;51.380;0.098;2023-02-26T05:17:07;3.90;99.90
63260;DHT22;49390;51.380;0.098;2023-02-26T05:19:35;3.90;99.90
63260;DHT22;49390;51.380;0.098;2023-02-26T05:22:03;3.90;99.90
63260;DHT22;49390;51.380;0.098;2023-02-26T05:24:31;3.90;99.90
63260;DHT22;49390;51.380;0.098;2023-02-26T05:27:00;3.90;99.90
63260;DHT22;49390;51.380;0.098;2023-02-26T05:29:30;3.90;99.90
63260;DHT22;49390;51.380;0.098;2023-02-26T05:32:02;3.80;99.90
63260;DHT22;49390;51.380;0.098;2023-02-26T05:34:30;3.90;99.90
63260;DHT22;49390;51.380;0.098;2023-02-26T05:36:58;3.90;99.90
63260;DHT22;49390;51.380;0.098;2023-02-26T05:39:26;3.90;99.90
63260;DHT22;49390;51.380;0.098;2023-02-26T05:41:54;3.90;99.90
63260;DHT22;49390;51.380;0.098;2023-02-26T05:44:23;3.90;99.90
63260;DHT22;49390;51.380;0.098;2023-02-26T05:46:51;3.90;99.90
63260;DHT22;49390;51.380;0.098;2023-02-26T05:49:19;3.90;99.90
63260;DHT22;49390;51.380;0.098;2023-02-26T05:51:47;3.90;99.90
63260;DHT22;49390;51.380;0.098;2023-02-26T05:54:15;3.90;99.90
63260;DHT22;49390;51.380;0.098;2023-02-26T05:56:43;3.90;99.90
63260;DHT22;49390;51.380;0.098;2023-02-26T05:59:13;3.80;99.90
63260;DHT22;49390;51.380;0.098;2023-02-26T06:01:42;3.70;99.90
63260;DHT22;49390;51.380;0.098;2023-02-26T06:04:10;3.70;99.90
63260;DHT22;49390;51.380;0.098;2023-02-26T06:06:38;3.70;99.90
63260;DHT22;49390;51.380;0.098;2023-02-26T06:09:06;3.60;99.90
63260;DHT22;49390;51.380;0.098;2023-02-26T06:11:34;3.60;99.90
63260;DHT22;49390;51.380;0.098;2023-02-26T06:14:01;3.60;99.90
63260;DHT22;49390;51.380;0.098;2023-02-26T06:16:29;3.50;99.90
63260;DHT22;49390;51.380;0.098;2023-02-26T06:18:58;3.50;99.90
63260;DHT22;49390;51.380;0.098;2023-02-26T06:21:26;3.50;99.90
63260;DHT22;49390;51.380;0.098;2023-02-26T06:23:54;3.40;99.90
63260;DHT22;49390;51.380;0.098;2023-02-26T06:26:22;3.50;99.90
63260;DHT22;49390;51.380;0.098;2023-02-26T06:28:50;3.50;99.90
63260;DHT22;49390;51.380;0.098;2023-02-26T06:31:18;3.50;99.90
63260;DHT22;49390;51.380;0.098;2023-02-26T06:33:46;3.40;99.90
63260;DHT22;49390;51.380;0.098;2023-02-26T06:36:14;3.50;99.90
63260;DHT22;49390;51.380;0.098;2023-02-26T06:38:44;3.50;99.90
63260;DHT22;49390;51.380;0.098;2023-02-26T06:41:12;3.60;99.90
63260;DHT22;49390;51.380;0.098;2023-02-26T06:43:40;3.60;99.90
63260;DHT22;49390;51.380;0.098;2023-02-26T06:46:08;3.50;99.90
63260;DHT22;49390;51.380;0.098;2023-02-26T06:48:36;3.50;99.90
63260;DHT22;49390;51.380;0.098;2023-02-26T06:51:04;3.50;99.90
63260;DHT22;49390;51.380;0.098;2023-02-26T06:53:34;3.40;99.90
63260;DHT22;49390;51.380;0.098;2023-02-26T06:56:04;3.40;99.90
63260;DHT22;49390;51.380;0.098;2023-02-26T06:58:32;3.40;99.90
63260;DHT22;49390;51.380;0.098;2023-02-26T07:01:02;3.30;99.90
63260;DHT22;49390;51.380;0.098;2023-02-26T07:03:30;3.30;99.90
63260;DHT22;49390;51.380;0.098;2023-02-26T07:05:58;3.30;99.90
63260;DHT22;49390;51.380;0.098;2023-02-26T07:08:46;3.30;99.90
63260;DHT22;49390;51.380;0.098;2023-02-26T07:11:14;3.30;99.90
63260;DHT22;49390;51.380;0.098;2023-02-26T07:13:42;3.30;99.90
63260;DHT22;49390;51.380;0.098;2023-02-26T07:16:10;3.40;99.90
63260;DHT22;49390;51.380;0.098;2023-02-26T07:18:39;3.40;99.90
63260;DHT22;49390;51.380;0.098;2023-02-26T07:21:07;3.40;99.90
63260;DHT22;49390;51.380;0.098;2023-02-26T07:23:35;3.40;99.90
63260;DHT22;49390;51.380;0.098;2023-02-26T07:26:03;3.40;99.90
63260;DHT22;49390;51.380;0.098;2023-02-26T07:28:31;3.40;99.90
63260;DHT22;49390;51.380;0.098;2023-02-26T07:30:59;3.50;99.90
63260;DHT22;49390;51.380;0.098;2023-02-26T07:33:27;3.50;99.90
63260;DHT22;49390;51.380;0.098;2023-02-26T07:35:55;3.60;99.90
63260;DHT22;49390;51.380;0.098;2023-02-26T07:38:23;3.60;99.90
63260;DHT22;49390;51.380;0.098;2023-02-26T07:40:54;3.60;99.90
63260;DHT22;49390;51.380;0.098;2023-02-26T07:43:23;3.60;99.90
63260;DHT22;49390;51.380;0.098;2023-02-26T07:45:52;3.70;99.90
63260;DHT22;49390;51.380;0.098;2023-02-26T07:48:20;3.70;99.90
63260;DHT22;49390;51.380;0.098;2023-02-26T07:50:51;3.70;99.90
63260;DHT22;49390;51.380;0.098;2023-02-26T07:53:19;3.70;99.90
63260;DHT22;49390;51.380;0.098;2023-02-26T07:55:48;3.70;99.90
63260;DHT22;49390;51.380;0.098;2023-02-26T07:58:16;3.70;99.90
63260;DHT22;49390;51.380;0.098;2023-02-26T08:00:44;3.70;99.90
63260;DHT22;49390;51.380;0.098;2023-02-26T08:03:12;3.70;99.90
63260;DHT22;49390;51.380;0.098;2023-02-26T08:05:42;3.60;99.90
63260;DHT22;49390;51.380;0.098;2023-02-26T08:08:09;3.60;99.90
63260;DHT22;49390;51.380;0.098;2023-02-26T08:10:40;3.70;99.90
63260;DHT22;49390;51.380;0.098;2023-02-26T08:13:08;3.70;99.90
63260;DHT22;49390;51.380;0.098;2023-02-26T08:15:37;3.70;99.90
63260;DHT22;49390;51.380;0.098;2023-02-26T08:18:07;3.70;99.90
63260;DHT22;49390;51.380;0.098;2023-02-26T08:20:35;3.80;99.90
63260;DHT22;49390;51.380;0.098;2023-02-26T08:23:02;3.90;99.90
63260;DHT22;49390;51.380;0.098;2023-02-26T08:25:30;4.00;99.90
63260;DHT22;49390;51.380;0.098;2023-02-26T08:27:58;4.00;99.90
63260;DHT22;49390;51.380;0.098;2023-02-26T08:30:28;4.10;99.90
63260;DHT22;49390;51.380;0.098;2023-02-26T08:32:58;4.20;99.90
63260;DHT22;49390;51.380;0.098;2023-02-26T08:35:26;4.20;99.90
63260;DHT22;49390;51.380;0.098;2023-02-26T08:37:54;4.20;99.90
63260;DHT22;49390;51.380;0.098;2023-02-26T08:40:22;4.30;99.90
63260;DHT22;49390;51.380;0.098;2023-02-26T08:42:51;4.40;99.90
63260;DHT22;49390;51.380;0.098;2023-02-26T08:45:19;4.40;99.90
63260;DHT22;49390;51.380;0.098;2023-02-26T08:47:47;4.40;99.90
63260;DHT22;49390;51.380;0.098;2023-02-26T08:50:25;4.50;99.90
63260;DHT22;49390;51.380;0.098;2023-02-26T08:52:53;4.60;99.90
63260;DHT22;49390;51.380;0.098;2023-02-26T08:55:21;4.60;99.90
63260;DHT22;49390;51.380;0.098;2023-02-26T08:57:50;4.70;99.90
63260;DHT22;49390;51.380;0.098;2023-02-26T09:00:18;4.80;99.90
63260;DHT22;49390;51.380;0.098;2023-02-26T09:02:46;4.80;99.90
63260;DHT22;49390;51.380;0.098;2023-02-26T09:05:15;4.90;99.90
63260;DHT22;49390;51.380;0.098;2023-02-26T09:07:43;5.00;99.90
63260;DHT22;49390;51.380;0.098;2023-02-26T09:10:12;5.20;99.90
63260;DHT22;49390;51.380;0.098;2023-02-26T09:12:41;5.40;99.90
63260;DHT22;49390;51.380;0.098;2023-02-26T09:15:11;5.70;99.90
63260;DHT22;49390;51.380;0.098;2023-02-26T09:17:40;5.90;99.90
63260;DHT22;49390;51.380;0.098;2023-02-26T09:20:09;6.10;99.90
63260;DHT22;49390;51.380;0.098;2023-02-26T09:22:37;6.20;99.90
63260;DHT22;49390;51.380;0.098;2023-02-26T09:25:06;6.40;99.90
63260;DHT22;49390;51.380;0.098;2023-02-26T09:27:34;6.60;99.90
63260;DHT22;49390;51.380;0.098;2023-02-26T09:30:04;6.80;97.90
63260;DHT22;49390;51.380;0.098;2023-02-26T09:32:32;6.90;97.20
63260;DHT22;49390;51.380;0.098;2023-02-26T09:35:00;7.10;94.40
63260;DHT22;49390;51.380;0.098;2023-02-26T09:37:29;7.20;93.40
63260;DHT22;49390;51.380;0.098;2023-02-26T09:39:57;7.30;92.30
63260;DHT22;49390;51.380;0.098;2023-02-26T09:45:35;7.40;84.30
63260;DHT22;49390;51.380;0.098;2023-02-26T09:48:07;7.40;82.40
63260;DHT22;49390;51.380;0.098;2023-02-26T09:50:42;7.50;81.50
63260;DHT22;49390;51.380;0.098;2023-02-26T09:53:25;7.40;78.30
63260;DHT22;49390;51.380;0.098;2023-02-26T10:12:25;6.90;77.30
63260;DHT22;49390;51.380;0.098;2023-02-26T10:25:36;6.90;76.80
63260;DHT22;49390;51.380;0.098;2023-02-26T10:31:28;7.10;76.20
63260;DHT22;49390;51.380;0.098;2023-02-26T10:42:01;7.40;73.30
63260;DHT22;49390;51.380;0.098;2023-02-26T10:50:11;7.60;71.60
63260;DHT22;49390;51.380;0.098;2023-02-26T10:52:43;7.70;69.80
63260;DHT22;49390;51.380;0.098;2023-02-26T10:57:59;7.60;68.40
63260;DHT22;49390;51.380;0.098;2023-02-26T11:00:30;7.70;67.60
63260;DHT22;49390;51.380;0.098;2023-02-26T11:02:58;7.80;67.60
63260;DHT22;49390;51.380;0.098;2023-02-26T11:05:30;7.80;64.00
63260;DHT22;49390;51.380;0.098;2023-02-26T11:08:22;7.80;62.00
63260;DHT22;49390;51.380;0.098;2023-02-26T11:10:53;7.80;61.10
63260;DHT22;49390;51.380;0.098;2023-02-26T11:13:23;7.80;62.40
63260;DHT22;49390;51.380;0.098;2023-02-26T11:15:54;7.80;58.80
63260;DHT22;49390;51.380;0.098;2023-02-26T11:18:30;7.90;58.30
63260;DHT22;49390;51.380;0.098;2023-02-26T11:20:59;7.90;57.90
63260;DHT22;49390;51.380;0.098;2023-02-26T11:23:29;7.90;57.10
63260;DHT22;49390;51.380;0.098;2023-02-26T11:26:15;8.00;56.60
63260;DHT22;49390;51.380;0.098;2023-02-26T11:28:48;8.00;55.60
63260;DHT22;49390;51.380;0.098;2023-02-26T11:31:19;8.00;55.90
63260;DHT22;49390;51.380;0.098;2023-02-26T11:33:50;8.00;56.50
63260;DHT22;49390;51.380;0.098;2023-02-26T11:36:23;8.00;55.10
63260;DHT22;49390;51.380;0.098;2023-02-26T11:38:55;7.90;54.50
63260;DHT22;49390;51.380;0.098;2023-02-26T11:41:24;7.80;54.10
63260;DHT22;49390;51.380;0.098;2023-02-26T11:44:09;7.70;53.50
63260;DHT22;49390;51.380;0.098;2023-02-26T11:46:46;7.70;54.80
63260;DHT22;49390;51.380;0.098;2023-02-26T11:49:19;7.60;55.30
63260;DHT22;49390;51.380;0.098;2023-02-26T11:54:38;7.70;55.80
63260;DHT22;49390;51.380;0.098;2023-02-26T11:57:24;7.70;56.00
63260;DHT22;49390;51.380;0.098;2023-02-26T11:59:56;7.80;56.10
63260;DHT22;49390;51.380;0.098;2023-02-26T12:02:31;7.90;56.50
63260;DHT22;49390;51.380;0.098;2023-02-26T12:05:04;7.90;56.60
63260;DHT22;49390;51.380;0.098;2023-02-26T12:07:33;8.00;56.70
63260;DHT22;49390;51.380;0.098;2023-02-26T12:10:01;8.00;57.20
63260;DHT22;49390;51.380;0.098;2023-02-26T12:13:00;8.10;57.10
63260;DHT22;49390;51.380;0.098;2023-02-26T12:15:33;8.10;57.30
63260;DHT22;49390;51.380;0.098;2023-02-26T12:18:17;8.00;57.70
63260;DHT22;49390;51.380;0.098;2023-02-26T12:24:22;8.00;59.10
63260;DHT22;49390;51.380;0.098;2023-02-26T12:27:13;8.10;59.70
63260;DHT22;49390;51.380;0.098;2023-02-26T12:37:49;8.10;60.90
63260;DHT22;49390;51.380;0.098;2023-02-26T12:43:49;7.90;61.80
63260;DHT22;49390;51.380;0.098;2023-02-26T12:46:51;7.90;62.30
63260;DHT22;49390;51.380;0.098;2023-02-26T13:02:59;6.70;97.30
63260;DHT22;49390;51.380;0.098;2023-02-26T13:19:10;6.50;93.20
63260;DHT22;49390;51.380;0.098;2023-02-26T13:21:47;6.50;92.70
63260;DHT22;49390;51.380;0.098;2023-02-26T13:24:36;6.50;91.60
63260;DHT22;49390;51.380;0.098;2023-02-26T13:27:08;6.50;90.00
63260;DHT22;49390;51.380;0.098;2023-02-26T13:32:46;6.60;86.40
63260;DHT22;49390;51.380;0.098;2023-02-26T13:35:32;6.60;82.70
63260;DHT22;49390;51.380;0.098;2023-02-26T13:38:25;6.60;81.30
63260;DHT22;49390;51.380;0.098;2023-02-26T13:41:19;6.60;81.10
63260;DHT22;49390;51.380;0.098;2023-02-26T13:46:41;6.80;78.50
63260;DHT22;49390;51.380;0.098;2023-02-26T13:52:00;6.90;76.90
63260;DHT22;49390;51.380;0.098;2023-02-26T13:54:43;7.00;76.70
63260;DHT22;49390;51.380;0.098;2023-02-26T14:02:55;7.20;74.10
63260;DHT22;49390;51.380;0.098;2023-02-26T14:08:24;7.40;74.10
63260;DHT22;49390;51.380;0.098;2023-02-26T14:11:02;7.30;72.70
63260;DHT22;49390;51.380;0.098;2023-02-26T14:13:37;7.30;72.40
63260;DHT22;49390;51.380;0.098;2023-02-26T14:24:04;7.20;72.50
63260;DHT22;49390;51.380;0.098;2023-02-26T14:26:35;7.10;73.00
63260;DHT22;49390;51.380;0.098;2023-02-26T14:34:51;7.10;76.20
63260;DHT22;49390;51.380;0.098;2023-02-26T14:37:23;7.00;79.60
63260;DHT22;49390;51.380;0.098;2023-02-26T14:42:35;6.80;83.70
63260;DHT22;49390;51.380;0.098;2023-02-26T14:47:45;6.80;86.30
63260;DHT22;49390;51.380;0.098;2023-02-26T14:50:20;6.80;87.00
63260;DHT22;49390;51.380;0.098;2023-02-26T14:53:08;6.80;87.60
63260;DHT22;49390;51.380;0.098;2023-02-26T14:56:17;6.80;87.00
63260;DHT22;49390;51.380;0.098;2023-02-26T15:15:51;6.90;80.30
63260;DHT22;49390;51.380;0.098;2023-02-26T15:23:36;6.90;77.90
63260;DHT22;49390;51.380;0.098;2023-02-26T15:26:06;6.90;78.70
63260;DHT22;49390;51.380;0.098;2023-02-26T15:28:39;7.00;77.60
63260;DHT22;49390;51.380;0.098;2023-02-26T15:31:10;7.00;74.20
63260;DHT22;49390;51.380;0.098;2023-02-26T15:33:41;7.00;73.30
63260;DHT22;49390;51.380;0.098;2023-02-26T15:37:23;7.00;71.90
63260;DHT22;49390;51.380;0.098;2023-02-26T15:39:53;7.00;71.90
63260;DHT22;49390;51.380;0.098;2023-02-26T15:42:27;7.10;71.40
63260;DHT22;49390;51.380;0.098;2023-02-26T15:44:59;7.10;69.90
63260;DHT22;49390;51.380;0.098;2023-02-26T15:47:29;7.10;69.40
63260;DHT22;49390;51.380;0.098;2023-02-26T15:49:57;7.10;68.90
63260;DHT22;49390;51.380;0.098;2023-02-26T15:52:27;7.10;68.90
63260;DHT22;49390;51.380;0.098;2023-02-26T15:54:59;7.10;69.20
63260;DHT22;49390;51.380;0.098;2023-02-26T15:57:29;7.20;69.40
63260;DHT22;49390;51.380;0.098;2023-02-26T16:00:07;7.20;69.00
63260;DHT22;49390;51.380;0.098;2023-02-26T16:02:40;7.30;68.20
63260;DHT22;49390;51.380;0.098;2023-02-26T16:05:11;7.40;67.70
63260;DHT22;49390;51.380;0.098;2023-02-26T16:07:41;7.40;67.30
63260;DHT22;49390;51.380;0.098;2023-02-26T16:10:27;7.30;67.40
63260;DHT22;49390;51.380;0.098;2023-02-26T16:12:56;7.30;67.20
63260;DHT22;49390;51.380;0.098;2023-02-26T16:15:34;7.30;68.50
63260;DHT22;49390;51.380;0.098;2023-02-26T16:18:17;7.20;67.40
63260;DHT22;49390;51.380;0.098;2023-02-26T16:20:53;7.10;67.90
63260;DHT22;49390;51.380;0.098;2023-02-26T16:26:08;7.10;68.20
63260;DHT22;49390;51.380;0.098;2023-02-26T16:28:42;7.10;68.00
63260;DHT22;49390;51.380;0.098;2023-02-26T16:31:18;7.20;68.40
63260;DHT22;49390;51.380;0.098;2023-02-26T16:34:02;7.30;67.70
63260;DHT22;49390;51.380;0.098;2023-02-26T16:36:37;7.20;67.60
63260;DHT22;49390;51.380;0.098;2023-02-26T16:41:37;7.20;68.10
63260;DHT22;49390;51.380;0.098;2023-02-26T16:46:57;7.20;67.40
63260;DHT22;49390;51.380;0.098;2023-02-26T16:49:32;7.20;67.60
63260;DHT22;49390;51.380;0.098;2023-02-26T16:52:04;7.20;67.60
63260;DHT22;49390;51.380;0.098;2023-02-26T16:54:39;7.10;67.50
63260;DHT22;49390;51.380;0.098;2023-02-26T16:57:18;7.10;67.80
63260;DHT22;49390;51.380;0.098;2023-02-26T16:59:56;7.10;67.70
63260;DHT22;49390;51.380;0.098;2023-02-26T17:02:30;7.10;68.10
63260;DHT22;49390;51.380;0.098;2023-02-26T17:05:06;7.00;67.90
63260;DHT22;49390;51.380;0.098;2023-02-26T17:07:46;7.00;68.30
63260;DHT22;49390;51.380;0.098;2023-02-26T17:10:28;7.00;69.20
63260;DHT22;49390;51.380;0.098;2023-02-26T17:13:23;7.00;69.80
63260;DHT22;49390;51.380;0.098;2023-02-26T17:15:56;7.00;70.90
63260;DHT22;49390;51.380;0.098;2023-02-26T17:18:25;6.90;71.40
63260;DHT22;49390;51.380;0.098;2023-02-26T17:20:54;6.90;72.00
63260;DHT22;49390;51.380;0.098;2023-02-26T17:23:27;6.90;72.70
63260;DHT22;49390;51.380;0.098;2023-02-26T17:25:56;6.80;72.50
63260;DHT22;49390;51.380;0.098;2023-02-26T17:28:32;6.80;72.70
63260;DHT22;49390;51.380;0.098;2023-02-26T17:31:04;6.70;72.20
63260;DHT22;49390;51.380;0.098;2023-02-26T17:33:33;6.70;71.00
63260;DHT22;49390;51.380;0.098;2023-02-26T17:36:03;6.60;68.20
63260;DHT22;49390;51.380;0.098;2023-02-26T17:38:32;6.50;68.50
63260;DHT22;49390;51.380;0.098;2023-02-26T17:41:00;6.50;68.80
63260;DHT22;49390;51.380;0.098;2023-02-26T17:43:29;6.40;68.60
63260;DHT22;49390;51.380;0.098;2023-02-26T17:45:59;6.30;67.60
63260;DHT22;49390;51.380;0.098;2023-02-26T17:48:28;6.20;67.90
63260;DHT22;49390;51.380;0.098;2023-02-26T17:50:57;6.20;67.90
63260;DHT22;49390;51.380;0.098;2023-02-26T17:53:28;6.10;68.30
63260;DHT22;49390;51.380;0.098;2023-02-26T17:56:00;6.10;68.60
63260;DHT22;49390;51.380;0.098;2023-02-26T17:58:31;6.00;68.80
63260;DHT22;49390;51.380;0.098;2023-02-26T18:01:01;6.00;68.90
63260;DHT22;49390;51.380;0.098;2023-02-26T18:03:31;5.90;69.00
63260;DHT22;49390;51.380;0.098;2023-02-26T18:06:01;5.90;69.10
63260;DHT22;49390;51.380;0.098;2023-02-26T18:08:31;5.80;69.40
63260;DHT22;49390;51.380;0.098;2023-02-26T18:11:01;5.80;69.70
63260;DHT22;49390;51.380;0.098;2023-02-26T18:13:32;5.80;69.80
63260;DHT22;49390;51.380;0.098;2023-02-26T18:16:00;5.80;69.70
63260;DHT22;49390;51.380;0.098;2023-02-26T18:18:30;5.70;69.80
63260;DHT22;49390;51.380;0.098;2023-02-26T18:21:00;5.70;70.00
63260;DHT22;49390;51.380;0.098;2023-02-26T18:23:29;5.70;70.40
63260;DHT22;49390;51.380;0.098;2023-02-26T18:25:58;5.60;70.60
63260;DHT22;49390;51.380;0.098;2023-02-26T18:28:27;5.60;71.00
63260;DHT22;49390;51.380;0.098;2023-02-26T18:30:58;5.50;71.30
63260;DHT22;49390;51.380;0.098;2023-02-26T18:33:27;5.50;71.50
63260;DHT22;49390;51.380;0.098;2023-02-26T18:35:56;5.50;71.60
63260;DHT22;49390;51.380;0.098;2023-02-26T18:38:26;5.40;71.90
63260;DHT22;49390;51.380;0.098;2023-02-26T18:40:55;5.40;72.30
63260;DHT22;49390;51.380;0.098;2023-02-26T18:43:24;5.40;72.60
63260;DHT22;49390;51.380;0.098;2023-02-26T18:45:52;5.30;72.50
63260;DHT22;49390;51.380;0.098;2023-02-26T18:48:20;5.30;72.70
63260;DHT22;49390;51.380;0.098;2023-02-26T18:50:48;5.20;72.90
63260;DHT22;49390;51.380;0.098;2023-02-26T18:53:17;5.20;73.10
63260;DHT22;49390;51.380;0.098;2023-02-26T18:55:51;5.20;73.10
63260;DHT22;49390;51.380;0.098;2023-02-26T18:58:25;5.20;73.20
63260;DHT22;49390;51.380;0.098;2023-02-26T19:00:53;5.10;73.20
63260;DHT22;49390;51.380;0.098;2023-02-26T19:03:22;5.10;73.20
63260;DHT22;49390;51.380;0.098;2023-02-26T19:06:04;5.10;73.30
63260;DHT22;49390;51.380;0.098;2023-02-26T19:08:35;5.10;73.40
63260;DHT22;49390;51.380;0.098;2023-02-26T19:11:03;5.00;73.40
63260;DHT22;49390;51.380;0.098;2023-02-26T19:13:32;5.00;73.60
63260;DHT22;49390;51.380;0.098;2023-02-26T19:16:01;5.00;73.80
63260;DHT22;49390;51.380;0.098;2023-02-26T19:18:29;5.00;73.90
63260;DHT22;49390;51.380;0.098;2023-02-26T19:20:57;5.00;73.80
63260;DHT22;49390;51.380;0.098;2023-02-26T19:23:25;4.90;74.00
63260;DHT22;49390;51.380;0.098;2023-02-26T19:25:54;4.90;74.00
63260;DHT22;49390;51.380;0.098;2023-02-26T19:28:23;4.90;74.10
63260;DHT22;49390;51.380;0.098;2023-02-26T19:30:53;4.80;74.30
63260;DHT22;49390;51.380;0.098;2023-02-26T19:33:22;4.80;74.40
63260;DHT22;49390;51.380;0.098;2023-02-26T19:35:51;4.80;74.50
63260;DHT22;49390;51.380;0.098;2023-02-26T19:38:19;4.80;74.60
63260;DHT22;49390;51.380;0.098;2023-02-26T19:40:47;4.70;74.90